createdAt,value
2023-05-01T00:01:05.410Z,6.78
2023-05-01T00:06:03.386Z,14.23
2023-05-01T00:08:31.891Z,7.28
2023-05-01T00:11:09.815Z,8.27
2023-05-01T00:13:37.537Z,9.02
2023-05-01T00:16:12.636Z,10.25
2023-05-01T00:18:40.454Z,8.73
2023-05-01T00:21:08.000Z,10.05
2023-05-01T00:23:35.755Z,5.55
2023-05-01T00:26:03.500Z,9.07
2023-05-01T00:28:31.400Z,9.68
2023-05-01T00:30:59.103Z,6.77
2023-05-01T00:33:26.688Z,10.82
2023-05-01T00:35:55.838Z,5.22
2023-05-01T00:38:24.369Z,4.95
2023-05-01T00:40:52.379Z,7.13
2023-05-01T00:43:19.903Z,10.03
2023-05-01T00:45:47.546Z,8.30
2023-05-01T00:48:15.623Z,7.82
2023-05-01T00:50:44.862Z,8.80
2023-05-01T00:53:12.770Z,10.90
2023-05-01T00:55:42.354Z,7.07
2023-05-01T00:58:11.979Z,7.05
2023-05-01T01:00:39.720Z,5.95
2023-05-01T01:03:07.697Z,6.43
2023-05-01T01:05:42.112Z,6.75
2023-05-01T01:08:24.200Z,6.17
2023-05-01T01:11:35.809Z,5.10
2023-05-01T01:14:17.758Z,9.02
2023-05-01T01:17:16.941Z,11.38
2023-05-01T01:19:50.746Z,7.40
2023-05-01T01:22:24.050Z,4.87
2023-05-01T01:25:16.745Z,7.05
2023-05-01T01:28:18.292Z,7.32
2023-05-01T01:31:05.238Z,5.30
2023-05-01T01:33:51.712Z,7.72
2023-05-01T01:36:37.883Z,4.23
2023-05-01T01:39:46.896Z,5.60
2023-05-01T01:42:20.429Z,6.28
2023-05-01T01:45:05.090Z,6.55
2023-05-01T01:47:34.569Z,6.65
2023-05-01T01:50:06.859Z,5.73
2023-05-01T01:52:36.534Z,7.15
2023-05-01T01:55:09.687Z,5.18
2023-05-01T01:57:39.767Z,6.20
2023-05-01T02:00:11.239Z,5.25
2023-05-01T02:02:47.002Z,4.80
2023-05-01T02:05:17.954Z,6.50
2023-05-01T02:07:50.424Z,6.80
2023-05-01T02:10:18.865Z,5.00
2023-05-01T02:12:48.676Z,6.72
2023-05-01T02:15:19.126Z,5.67
2023-05-01T02:17:48.598Z,5.22
2023-05-01T02:20:16.710Z,5.30
2023-05-01T02:22:46.414Z,6.50
2023-05-01T02:25:16.807Z,3.88
2023-05-01T02:27:53.117Z,3.97
2023-05-01T02:30:21.786Z,5.72
2023-05-01T02:32:49.363Z,4.80
2023-05-01T02:35:17.813Z,4.35
2023-05-01T02:37:45.929Z,4.60
2023-05-01T02:40:15.232Z,4.23
2023-05-01T02:42:48.934Z,5.63
2023-05-01T02:45:22.678Z,4.70
2023-05-01T02:47:53.928Z,5.82
2023-05-01T02:50:23.466Z,2.63
2023-05-01T02:52:51.493Z,5.83
2023-05-01T02:55:39.754Z,4.10
2023-05-01T02:58:07.347Z,2.92
2023-05-01T03:00:35.574Z,4.05
2023-05-01T03:03:03.454Z,3.95
2023-05-01T03:05:31.114Z,4.23
2023-05-01T03:07:58.732Z,4.03
2023-05-01T03:10:26.268Z,3.65
2023-05-01T03:12:53.802Z,2.55
2023-05-01T03:15:21.335Z,3.17
2023-05-01T03:17:48.971Z,3.53
2023-05-01T03:20:16.685Z,2.63
2023-05-01T03:22:44.272Z,4.43
2023-05-01T03:25:12.107Z,2.15
2023-05-01T03:27:39.694Z,3.70
2023-05-01T03:30:08.957Z,2.80
2023-05-01T03:32:39.269Z,2.45
2023-05-01T03:35:10.746Z,3.53
2023-05-01T03:37:38.559Z,2.30
2023-05-01T03:40:06.944Z,3.35
2023-05-01T03:43:13.009Z,3.53
2023-05-01T03:45:41.674Z,3.33
2023-05-01T03:48:10.364Z,3.28
2023-05-01T03:50:38.266Z,6.28
2023-05-01T03:53:05.755Z,2.58
2023-05-01T03:55:33.737Z,3.07
2023-05-01T03:58:01.731Z,3.28
2023-05-01T04:00:29.603Z,4.20
2023-05-01T04:02:57.710Z,4.35
2023-05-01T04:05:25.843Z,4.95
2023-05-01T04:07:58.694Z,3.27
2023-05-01T04:10:26.571Z,3.20
2023-05-01T04:13:05.055Z,4.70
2023-05-01T04:15:33.077Z,3.88
2023-05-01T04:18:01.868Z,2.42
2023-05-01T04:20:29.738Z,3.37
2023-05-01T04:22:57.403Z,3.85
2023-05-01T04:25:25.219Z,2.65
2023-05-01T04:27:57.463Z,2.58
2023-05-01T04:30:24.970Z,3.25
2023-05-01T04:32:52.685Z,3.87
2023-05-01T04:35:20.278Z,2.22
2023-05-01T04:37:47.781Z,2.08
2023-05-01T04:40:15.345Z,1.83
2023-05-01T04:42:44.001Z,1.70
2023-05-01T04:45:14.534Z,2.97
2023-05-01T04:47:42.203Z,2.83
2023-05-01T04:50:11.547Z,2.78
2023-05-01T04:52:39.290Z,2.00
2023-05-01T04:55:07.709Z,2.88
2023-05-01T04:57:38.295Z,2.03
2023-05-01T05:00:08.639Z,2.17
2023-05-01T05:02:46.801Z,2.83
2023-05-01T05:05:16.046Z,1.98
2023-05-01T05:07:43.673Z,2.97
2023-05-01T05:10:29.659Z,4.63
2023-05-01T05:13:17.512Z,2.97
2023-05-01T05:15:46.720Z,3.15
2023-05-01T05:18:14.870Z,3.95
2023-05-01T05:20:42.571Z,1.85
2023-05-01T05:23:10.500Z,3.50
2023-05-01T05:25:38.216Z,2.47
2023-05-01T05:28:05.770Z,1.80
2023-05-01T05:30:33.355Z,2.20
2023-05-01T05:33:01.044Z,3.70
2023-05-01T05:35:28.728Z,1.77
2023-05-01T05:37:56.355Z,3.05
2023-05-01T05:40:25.296Z,2.47
2023-05-01T05:42:56.723Z,2.00
2023-05-01T05:45:26.796Z,3.75
2023-05-01T05:47:54.455Z,2.83
2023-05-01T05:50:22.949Z,2.78
2023-05-01T05:52:50.753Z,2.78
2023-05-01T05:55:18.493Z,5.35
2023-05-01T05:57:59.340Z,2.58
2023-05-01T06:00:27.378Z,6.80
2023-05-01T06:02:56.720Z,2.33
2023-05-01T06:05:27.863Z,2.55
2023-05-01T06:07:55.566Z,2.65
2023-05-01T06:10:23.110Z,2.70
2023-05-01T06:13:01.763Z,3.93
2023-05-01T06:15:38.834Z,3.72
2023-05-01T06:18:08.014Z,1.58
2023-05-01T06:20:36.214Z,3.80
2023-05-01T06:23:03.772Z,1.48
2023-05-01T06:25:42.932Z,1.83
2023-05-01T06:28:11.227Z,3.65
2023-05-01T06:30:39.002Z,2.78
2023-05-01T06:33:06.875Z,2.17
2023-05-01T06:35:34.674Z,2.58
2023-05-01T06:38:03.109Z,3.47
2023-05-01T06:40:31.811Z,2.72
2023-05-01T06:42:59.549Z,3.38
2023-05-01T06:45:30.602Z,3.50
2023-05-01T06:47:58.220Z,2.47
2023-05-01T06:50:25.882Z,2.57
2023-05-01T06:52:53.614Z,2.50
2023-05-01T06:55:21.884Z,2.95
2023-05-01T06:57:49.499Z,3.28
2023-05-01T07:00:18.178Z,2.05
2023-05-01T07:02:46.684Z,2.13
2023-05-01T07:05:14.334Z,4.35
2023-05-01T07:07:47.285Z,2.17
2023-05-01T07:10:18.375Z,2.92
2023-05-01T07:12:46.506Z,2.38
2023-05-01T07:15:16.325Z,4.53
2023-05-01T07:17:44.076Z,4.63
2023-05-01T07:20:12.709Z,2.45
2023-05-01T07:22:40.343Z,4.85
2023-05-01T07:25:08.479Z,3.30
2023-05-01T07:27:36.266Z,2.97
2023-05-01T07:30:05.319Z,2.35
2023-05-01T07:32:33.246Z,2.05
2023-05-01T07:35:00.920Z,2.15
2023-05-01T07:37:28.882Z,3.90
2023-05-01T07:39:58.440Z,1.77
2023-05-01T07:42:29.470Z,1.60
2023-05-01T07:44:57.062Z,0.85
2023-05-01T07:47:24.723Z,2.67
2023-05-01T07:49:52.295Z,3.22
2023-05-01T07:52:19.887Z,3.93
2023-05-01T07:54:54.268Z,1.98
2023-05-01T07:57:23.407Z,3.25
2023-05-01T07:59:58.209Z,1.05
2023-05-01T08:02:26.201Z,1.73
2023-05-01T08:04:54.154Z,1.30
2023-05-01T08:07:21.823Z,1.15
2023-05-01T08:09:49.424Z,0.73
2023-05-01T08:12:16.920Z,0.82
2023-05-01T08:14:44.580Z,3.13
2023-05-01T08:17:12.159Z,2.50
2023-05-01T08:19:39.696Z,1.95
2023-05-01T08:22:07.279Z,1.45
2023-05-01T08:24:34.818Z,1.15
2023-05-01T08:27:02.832Z,0.75
2023-05-01T08:29:30.838Z,0.90
2023-05-01T08:31:58.952Z,1.67
2023-05-01T08:34:26.911Z,1.65
2023-05-01T08:36:54.585Z,1.13
2023-05-01T08:39:22.159Z,2.45
2023-05-01T08:41:50.138Z,1.97
2023-05-01T08:44:19.730Z,1.90
2023-05-01T08:46:51.014Z,2.20
2023-05-01T08:49:22.158Z,1.90
2023-05-01T08:51:53.016Z,1.27
2023-05-01T08:54:21.357Z,1.40
2023-05-01T08:56:51.712Z,1.50
2023-05-01T08:59:20.634Z,1.75
2023-05-01T09:01:48.651Z,1.73
2023-05-01T09:04:17.412Z,2.08
2023-05-01T09:06:45.445Z,1.20
2023-05-01T09:09:13.160Z,1.38
2023-05-01T09:11:41.172Z,0.90
2023-05-01T09:14:09.321Z,3.03
2023-05-01T09:16:37.050Z,1.27
2023-05-01T09:19:04.794Z,0.93
2023-05-01T09:21:32.542Z,1.83
2023-05-01T09:24:00.644Z,1.58
2023-05-01T09:26:28.223Z,0.75
2023-05-01T09:28:59.773Z,0.90
2023-05-01T09:31:29.928Z,1.10
2023-05-01T09:33:59.446Z,1.40
2023-05-01T09:36:29.875Z,1.45
2023-05-01T09:38:58.491Z,1.30
2023-05-01T09:41:27.074Z,1.40
2023-05-01T09:43:58.072Z,1.80
2023-05-01T09:46:27.074Z,1.27
2023-05-01T09:48:59.988Z,1.63
2023-05-01T09:51:33.104Z,2.13
2023-05-01T09:54:02.858Z,2.90
2023-05-01T09:56:32.003Z,3.00
2023-05-01T09:59:18.098Z,1.33
2023-05-01T10:01:48.202Z,2.65
2023-05-01T10:04:16.063Z,2.22
2023-05-01T10:06:43.704Z,1.80
2023-05-01T10:09:17.627Z,1.70
2023-05-01T10:11:49.891Z,2.05
2023-05-01T10:14:17.557Z,2.38
2023-05-01T10:22:02.654Z,1.58
2023-05-01T10:24:32.222Z,2.40
2023-05-01T10:27:01.244Z,2.28
2023-05-01T10:29:31.605Z,1.55
2023-05-01T10:32:01.047Z,1.48
2023-05-01T10:34:29.347Z,2.20
2023-05-01T10:37:04.820Z,2.63
2023-05-01T10:39:36.254Z,1.92
2023-05-01T10:42:16.760Z,2.65
2023-05-01T10:44:48.007Z,2.75
2023-05-01T10:48:20.444Z,2.33
2023-05-01T10:51:26.643Z,2.17
2023-05-01T10:54:13.960Z,1.90
2023-05-01T10:56:43.597Z,2.40
2023-05-01T10:59:13.080Z,1.55
2023-05-01T11:06:02.957Z,2.43
2023-05-01T11:08:38.301Z,1.77
2023-05-01T11:15:40.749Z,2.08
2023-05-01T11:18:08.977Z,1.35
2023-05-01T11:20:36.635Z,2.80
2023-05-01T11:23:04.264Z,2.78
2023-05-01T11:25:33.173Z,0.98
2023-05-01T11:28:02.576Z,1.10
2023-05-01T11:30:40.521Z,1.58
2023-05-01T11:33:10.729Z,1.90
2023-05-01T11:35:39.356Z,1.50
2023-05-01T11:38:16.425Z,1.30
2023-05-01T11:40:44.353Z,2.67
2023-05-01T11:43:12.768Z,1.73
2023-05-01T11:45:40.673Z,4.67
2023-05-01T11:48:17.143Z,2.00
2023-05-01T11:50:44.746Z,1.40
2023-05-01T11:53:17.742Z,2.13
2023-05-01T11:55:45.795Z,2.67
2023-05-01T11:58:13.527Z,3.30
2023-05-01T12:00:42.936Z,2.10
2023-05-01T12:03:12.662Z,2.65
2023-05-01T12:05:43.286Z,2.08
2023-05-01T12:08:21.939Z,1.92
2023-05-01T12:10:56.290Z,2.10
2023-05-01T12:13:27.092Z,2.85
2023-05-01T12:15:56.252Z,2.38
2023-05-01T12:18:24.148Z,2.10
2023-05-01T12:20:56.857Z,1.75
2023-05-01T12:23:37.440Z,2.10
2023-05-01T12:26:19.100Z,2.92
2023-05-01T12:28:55.580Z,2.28
2023-05-01T12:31:23.779Z,1.38
2023-05-01T12:33:59.439Z,1.90
2023-05-01T12:36:29.001Z,3.90
2023-05-01T12:39:02.950Z,2.00
2023-05-01T12:41:38.358Z,2.35
2023-05-01T12:48:15.003Z,2.20
2023-05-01T12:50:43.984Z,1.97
2023-05-01T12:53:12.660Z,1.98
2023-05-01T12:55:48.304Z,3.33
2023-05-01T12:58:16.543Z,1.63
2023-05-01T13:00:52.489Z,1.95
2023-05-01T13:03:25.270Z,2.00
2023-05-01T13:05:57.968Z,2.60
2023-05-01T13:08:33.440Z,3.35
2023-05-01T13:11:09.715Z,1.92
2023-05-01T13:13:37.762Z,2.35
2023-05-01T13:16:05.652Z,3.03
2023-05-01T13:18:34.403Z,3.28
2023-05-01T13:21:10.104Z,2.67
2023-05-01T13:23:39.134Z,2.13
2023-05-01T13:26:11.203Z,2.53
2023-05-01T13:28:45.652Z,2.30
2023-05-01T13:31:17.237Z,2.05
2023-05-01T13:33:44.885Z,1.83
2023-05-01T13:36:25.133Z,1.70
2023-05-01T13:38:57.024Z,3.42
2023-05-01T13:41:26.345Z,1.97
2023-05-01T13:43:56.407Z,2.20
2023-05-01T13:46:27.403Z,1.98
2023-05-01T13:48:55.465Z,2.10
2023-05-01T13:51:25.287Z,1.95
2023-05-01T13:53:54.184Z,2.20
2023-05-01T13:56:22.306Z,2.63
2023-05-01T13:58:50.691Z,2.17
2023-05-01T14:01:24.017Z,2.38
2023-05-01T14:03:52.144Z,2.45
2023-05-01T14:06:21.373Z,2.90
2023-05-01T14:08:51.111Z,2.33
2023-05-01T14:11:20.155Z,2.40
2023-05-01T14:13:51.013Z,2.70
2023-05-01T14:16:27.080Z,2.08
2023-05-01T14:18:57.282Z,4.03
2023-05-01T14:21:30.142Z,3.35
2023-05-01T14:23:58.587Z,2.03
2023-05-01T14:26:26.380Z,1.83
2023-05-01T14:28:54.761Z,1.33
2023-05-01T14:31:27.758Z,1.30
2023-05-01T14:34:00.483Z,1.67
2023-05-01T14:36:34.061Z,1.95
2023-05-01T14:39:04.159Z,3.28
2023-05-01T14:41:32.235Z,1.52
2023-05-01T14:44:02.132Z,2.33
2023-05-01T14:46:31.943Z,2.28
2023-05-01T14:49:01.101Z,3.35
2023-05-01T14:51:32.265Z,4.88
2023-05-01T14:54:00.401Z,1.50
2023-05-01T14:56:28.186Z,2.20
2023-05-01T14:58:55.856Z,3.00
2023-05-01T15:02:21.034Z,3.58
2023-05-01T15:04:49.040Z,2.85
2023-05-01T15:07:17.312Z,1.02
2023-05-01T15:09:46.523Z,1.63
2023-05-01T15:12:14.109Z,1.65
2023-05-01T15:14:41.637Z,2.00
2023-05-01T15:17:09.227Z,2.88
2023-05-01T15:19:37.484Z,1.73
2023-05-01T15:22:05.073Z,1.93
2023-05-01T15:24:32.621Z,2.28
2023-05-01T15:27:00.577Z,2.70
2023-05-01T15:29:28.228Z,2.03
2023-05-01T15:32:08.189Z,2.55
2023-05-01T15:34:39.570Z,2.27
2023-05-01T15:37:07.460Z,1.55
2023-05-01T15:39:35.070Z,1.98
2023-05-01T15:42:02.646Z,2.63
2023-05-01T15:44:31.946Z,2.70
2023-05-01T15:46:59.508Z,2.63
2023-05-01T15:49:27.036Z,2.97
2023-05-01T15:51:55.206Z,2.67
2023-05-01T15:54:22.797Z,2.38
2023-05-01T15:56:50.375Z,3.42
2023-05-01T15:59:17.892Z,2.27
2023-05-01T16:01:45.768Z,2.67
2023-05-01T16:04:13.586Z,4.53
2023-05-01T16:06:42.250Z,3.10
2023-05-01T16:09:10.893Z,2.42
2023-05-01T16:11:38.586Z,2.43
2023-05-01T16:14:12.735Z,2.88
2023-05-01T16:16:42.274Z,2.03
2023-05-01T16:19:16.169Z,2.45
2023-05-01T16:21:44.085Z,2.28
2023-05-01T16:24:12.401Z,2.33
2023-05-01T16:26:41.552Z,4.55
2023-05-01T16:29:11.260Z,4.50
2023-05-01T16:31:44.881Z,5.53
2023-05-01T16:34:23.793Z,8.48
2023-05-01T16:36:51.499Z,4.23
2023-05-01T16:39:22.712Z,3.78
2023-05-01T17:04:41.696Z,5.90
2023-05-01T17:20:20.111Z,6.72
2023-05-01T17:22:47.716Z,4.68
2023-05-01T17:25:15.410Z,6.50
2023-05-01T17:27:43.112Z,5.25
2023-05-01T17:30:10.932Z,3.70
2023-05-01T17:32:38.699Z,6.18
2023-05-01T17:35:19.382Z,5.65
2023-05-01T17:42:59.488Z,9.30
2023-05-01T17:45:27.207Z,8.00
2023-05-01T17:47:56.331Z,10.80
2023-05-01T18:03:40.806Z,6.90
2023-05-01T18:13:54.799Z,4.90
2023-05-01T18:16:24.832Z,4.38
2023-05-01T18:19:01.693Z,4.10
2023-05-01T18:21:29.440Z,5.32
2023-05-01T18:23:57.045Z,5.55
2023-05-01T18:26:26.634Z,5.45
2023-05-01T18:29:00.810Z,3.90
2023-05-01T18:31:28.529Z,6.00
2023-05-01T18:33:56.353Z,5.55
2023-05-01T18:36:23.946Z,5.88
2023-05-01T18:43:39.449Z,7.05
2023-05-01T18:46:07.179Z,6.20
2023-05-01T18:48:34.954Z,5.55
2023-05-01T18:53:34.671Z,9.70
2023-05-01T18:56:02.339Z,4.32
2023-05-01T18:58:30.262Z,4.63
2023-05-01T19:00:57.832Z,6.82
2023-05-01T19:03:25.746Z,8.80
2023-05-01T19:05:53.271Z,6.22
2023-05-01T19:08:20.977Z,5.65
2023-05-01T19:10:48.486Z,6.73
2023-05-01T19:13:16.666Z,3.75
2023-05-01T19:15:44.248Z,4.00
2023-05-01T19:18:12.051Z,6.38
2023-05-01T19:20:39.728Z,4.85
2023-05-01T19:23:07.265Z,5.03
2023-05-01T19:25:35.988Z,6.95
2023-05-01T19:28:03.891Z,6.78
2023-05-01T19:30:31.821Z,4.18
2023-05-01T19:32:59.998Z,4.40
2023-05-01T19:35:27.707Z,5.10
2023-05-01T19:37:59.309Z,5.38
2023-05-01T19:40:26.923Z,6.18
2023-05-01T19:42:54.520Z,6.60
2023-05-01T19:45:22.281Z,7.40
2023-05-01T19:47:49.846Z,7.57
2023-05-01T19:50:21.163Z,5.47
2023-05-01T19:52:48.729Z,5.70
2023-05-01T19:55:17.106Z,4.60
2023-05-01T19:57:44.967Z,4.15
2023-05-01T20:00:13.000Z,5.73
2023-05-01T20:02:41.701Z,5.32
2023-05-01T20:05:53.336Z,6.85
2023-05-01T20:08:20.980Z,7.30
2023-05-01T20:10:48.440Z,4.70
2023-05-01T20:13:16.064Z,6.10
2023-05-01T20:15:43.603Z,5.95
2023-05-01T20:18:13.298Z,4.65
2023-05-01T20:20:41.062Z,6.85
2023-05-01T20:23:40.486Z,5.38
2023-05-01T20:30:43.779Z,5.10
2023-05-01T20:33:11.892Z,5.35
2023-05-01T20:35:39.585Z,8.32
2023-05-01T20:38:07.232Z,9.60
2023-05-01T20:40:40.030Z,4.07
2023-05-01T20:43:08.003Z,6.53
2023-05-01T20:45:35.582Z,6.93
2023-05-01T20:48:03.506Z,9.27
2023-05-01T20:50:31.488Z,9.43
2023-05-01T20:52:59.112Z,7.27
2023-05-01T20:55:28.135Z,4.75
2023-05-01T20:57:56.069Z,6.50
2023-05-01T21:00:29.379Z,5.03
2023-05-01T21:26:48.832Z,5.15
2023-05-01T21:29:16.463Z,3.60
2023-05-01T21:31:44.088Z,5.70
2023-05-01T21:34:11.933Z,4.78
2023-05-01T21:36:45.153Z,11.52
2023-05-01T21:39:13.006Z,7.13
2023-05-01T21:46:10.714Z,5.18
2023-05-01T21:48:52.068Z,8.30
2023-05-01T21:51:27.618Z,9.00
2023-05-01T21:53:55.649Z,5.35
2023-05-01T21:56:23.649Z,5.10
2023-05-01T21:58:54.222Z,4.72
2023-05-01T22:01:23.500Z,5.07
2023-05-01T22:03:51.705Z,6.97
2023-05-01T22:06:19.379Z,6.90
2023-05-01T22:08:47.018Z,7.17
2023-05-01T22:11:14.552Z,7.28
2023-05-01T22:13:42.071Z,6.40
2023-05-01T22:16:21.542Z,5.78
2023-05-01T22:18:50.605Z,7.15
2023-05-01T22:21:18.283Z,8.67
2023-05-01T22:23:45.854Z,7.45
2023-05-01T22:26:16.101Z,5.55
2023-05-01T22:29:08.443Z,7.68
2023-05-01T22:31:36.224Z,6.13
2023-05-01T22:34:03.739Z,4.00
2023-05-01T22:36:31.527Z,6.82
2023-05-01T22:38:59.021Z,5.07
2023-05-01T22:41:26.801Z,4.50
2023-05-01T22:43:54.445Z,6.25
2023-05-01T22:46:23.000Z,5.30
2023-05-01T22:48:50.611Z,3.90
2023-05-01T22:51:18.263Z,8.82
2023-05-01T22:53:46.575Z,7.82
2023-05-01T22:56:14.182Z,6.80
2023-05-01T22:58:42.788Z,3.20
2023-05-01T23:01:10.479Z,4.28
2023-05-01T23:03:39.099Z,5.57
2023-05-01T23:06:07.072Z,8.85
2023-05-01T23:08:34.742Z,7.35
2023-05-01T23:11:02.371Z,5.90
2023-05-01T23:13:32.261Z,4.75
2023-05-01T23:15:59.899Z,6.60
2023-05-01T23:18:33.195Z,6.53
2023-05-01T23:21:00.943Z,7.88
2023-05-01T23:23:34.723Z,7.90
2023-05-01T23:26:02.359Z,6.32
2023-05-01T23:28:30.504Z,7.18
2023-05-01T23:31:00.675Z,8.00
2023-05-01T23:33:37.972Z,7.05
2023-05-01T23:36:12.920Z,4.87
2023-05-01T23:38:40.635Z,7.32
2023-05-01T23:41:08.385Z,6.30
2023-05-01T23:43:37.988Z,6.78
2023-05-01T23:46:07.639Z,9.63
2023-05-01T23:48:36.008Z,7.97
2023-05-01T23:51:03.748Z,6.78
2023-05-01T23:53:31.554Z,6.88
2023-05-01T23:55:59.324Z,7.88
2023-05-01T23:58:26.846Z,4.10
